createdAt,value
2023-03-26T00:01:52.962Z,8.12
2023-03-26T00:04:21.913Z,8.16
2023-03-26T00:06:49.387Z,8.24
2023-03-26T00:09:19.682Z,8.26
2023-03-26T00:11:49.471Z,8.24
2023-03-26T00:14:18.044Z,8.18
2023-03-26T00:16:47.682Z,8.09
2023-03-26T00:19:15.258Z,8.02
2023-03-26T00:21:42.820Z,8.06
2023-03-26T00:24:15.241Z,8.04
2023-03-26T00:26:43.673Z,7.94
2023-03-26T00:29:13.998Z,8.04
2023-03-26T00:31:41.283Z,8.04
2023-03-26T00:34:10.570Z,8.03
2023-03-26T00:36:37.734Z,8.02
2023-03-26T00:39:07.945Z,8.04
2023-03-26T00:41:43.868Z,8.03
2023-03-26T00:44:12.396Z,8.00
2023-03-26T00:46:40.135Z,8.00
2023-03-26T00:49:11.008Z,7.95
2023-03-26T00:51:39.206Z,8.00
2023-03-26T00:54:08.210Z,7.99
2023-03-26T00:56:35.902Z,7.97
2023-03-26T00:59:03.150Z,7.95
2023-03-26T01:01:32.584Z,7.95
2023-03-26T01:04:33.601Z,7.95
2023-03-26T01:07:04.267Z,7.96
2023-03-26T01:09:37.392Z,7.99
2023-03-26T01:12:07.537Z,7.99
2023-03-26T01:14:35.006Z,7.92
2023-03-26T01:17:06.862Z,7.89
2023-03-26T01:19:40.679Z,7.89
2023-03-26T01:22:13.139Z,7.89
2023-03-26T01:24:42.673Z,7.84
2023-03-26T01:27:24.610Z,7.73
2023-03-26T01:29:55.940Z,7.65
2023-03-26T01:32:40.019Z,7.64
2023-03-26T01:35:21.069Z,7.59
2023-03-26T01:38:00.999Z,7.49
2023-03-26T01:40:42.859Z,7.39
2023-03-26T01:43:16.567Z,7.36
2023-03-26T01:45:47.494Z,7.34
2023-03-26T01:48:16.316Z,7.37
2023-03-26T01:50:44.058Z,7.25
2023-03-26T01:53:13.169Z,7.20
2023-03-26T01:55:56.044Z,7.10
2023-03-26T01:58:34.925Z,7.22
2023-03-26T02:01:13.083Z,7.13
2023-03-26T02:03:46.969Z,7.22
2023-03-26T02:06:19.919Z,7.11
2023-03-26T02:08:52.898Z,7.02
2023-03-26T02:11:23.310Z,6.97
2023-03-26T02:13:51.847Z,6.99
2023-03-26T02:16:20.408Z,6.92
2023-03-26T02:18:51.584Z,6.90
2023-03-26T02:21:22.274Z,6.83
2023-03-26T02:23:57.735Z,6.78
2023-03-26T02:26:26.350Z,6.97
2023-03-26T02:28:53.493Z,7.02
2023-03-26T02:31:21.915Z,7.09
2023-03-26T02:33:50.144Z,7.22
2023-03-26T02:36:19.740Z,7.26
2023-03-26T02:38:47.060Z,7.21
2023-03-26T02:41:14.415Z,7.12
2023-03-26T02:43:43.397Z,7.14
2023-03-26T02:46:10.519Z,7.18
2023-03-26T02:48:41.460Z,7.26
2023-03-26T02:51:08.889Z,7.15
2023-03-26T02:53:39.566Z,7.15
2023-03-26T02:56:07.206Z,7.02
2023-03-26T02:58:34.277Z,7.18
2023-03-26T03:01:05.990Z,7.03
2023-03-26T03:03:36.532Z,7.03
2023-03-26T03:06:03.694Z,7.15
2023-03-26T03:08:31.958Z,7.02
2023-03-26T03:10:59.625Z,7.03
2023-03-26T03:13:26.667Z,7.04
2023-03-26T03:15:56.465Z,7.06
2023-03-26T03:18:25.638Z,7.08
2023-03-26T03:20:54.007Z,7.14
2023-03-26T03:23:22.044Z,7.21
2023-03-26T03:25:50.854Z,7.20
2023-03-26T03:28:18.281Z,7.24
2023-03-26T03:30:46.020Z,7.24
2023-03-26T03:33:13.282Z,7.24
2023-03-26T03:35:45.985Z,7.26
2023-03-26T03:38:13.064Z,7.22
2023-03-26T03:40:40.037Z,7.24
2023-03-26T03:43:07.518Z,7.32
2023-03-26T03:45:34.785Z,7.31
2023-03-26T03:48:02.149Z,7.34
2023-03-26T03:50:29.661Z,7.30
2023-03-26T03:52:59.422Z,7.32
2023-03-26T03:55:27.765Z,7.26
2023-03-26T03:57:54.953Z,7.27
2023-03-26T04:00:23.104Z,7.24
2023-03-26T04:02:50.587Z,7.16
2023-03-26T04:05:18.030Z,7.12
2023-03-26T04:07:45.303Z,7.16
2023-03-26T04:10:16.076Z,7.05
2023-03-26T04:12:43.568Z,7.21
2023-03-26T04:15:10.962Z,7.24
2023-03-26T04:17:42.730Z,7.31
2023-03-26T04:20:14.770Z,7.40
2023-03-26T04:22:45.288Z,7.49
2023-03-26T04:25:15.602Z,7.48
2023-03-26T04:27:44.272Z,7.47
2023-03-26T04:30:15.730Z,7.51
2023-03-26T04:32:44.884Z,7.53
2023-03-26T04:35:14.593Z,7.57
2023-03-26T04:37:44.317Z,7.62
2023-03-26T04:40:18.583Z,7.67
2023-03-26T04:42:48.252Z,7.71
2023-03-26T04:45:23.004Z,7.69
2023-03-26T04:47:50.946Z,7.69
2023-03-26T04:50:18.507Z,7.65
2023-03-26T04:52:46.299Z,7.65
2023-03-26T04:55:23.183Z,7.64
2023-03-26T04:57:53.922Z,7.62
2023-03-26T05:00:21.727Z,7.63
2023-03-26T05:02:53.997Z,7.68
2023-03-26T05:05:23.970Z,7.71
2023-03-26T05:07:51.421Z,7.75
2023-03-26T05:10:23.001Z,7.77
2023-03-26T05:12:50.214Z,7.73
2023-03-26T05:15:17.791Z,7.68
2023-03-26T05:17:44.941Z,7.73
2023-03-26T05:20:21.017Z,7.73
2023-03-26T05:22:49.220Z,7.75
2023-03-26T05:25:17.283Z,7.79
2023-03-26T05:27:46.849Z,7.78
2023-03-26T05:30:16.838Z,7.76
2023-03-26T05:32:47.375Z,7.80
2023-03-26T05:35:17.124Z,7.80
2023-03-26T05:37:47.299Z,7.73
2023-03-26T05:40:17.074Z,7.79
2023-03-26T05:42:46.132Z,7.79
2023-03-26T05:45:17.612Z,7.69
2023-03-26T05:47:44.982Z,7.71
2023-03-26T05:50:12.307Z,7.79
2023-03-26T05:52:41.874Z,7.79
2023-03-26T05:55:12.858Z,7.84
2023-03-26T05:57:43.564Z,7.83
2023-03-26T06:00:13.219Z,7.88
2023-03-26T06:02:42.994Z,7.76
2023-03-26T06:05:12.520Z,7.89
2023-03-26T06:07:39.913Z,7.83
2023-03-26T06:10:08.428Z,7.85
2023-03-26T06:12:36.991Z,7.90
2023-03-26T06:15:04.896Z,7.93
2023-03-26T06:17:33.328Z,7.97
2023-03-26T06:20:09.296Z,7.95
2023-03-26T06:22:38.993Z,8.00
2023-03-26T06:25:06.739Z,7.98
2023-03-26T06:27:37.613Z,8.02
2023-03-26T06:30:06.250Z,8.04
2023-03-26T06:32:37.779Z,7.99
2023-03-26T06:35:06.412Z,8.04
2023-03-26T06:37:33.727Z,8.06
2023-03-26T06:40:02.187Z,8.11
2023-03-26T06:43:06.515Z,8.08
2023-03-26T06:45:18.347Z,8.11
2023-03-26T06:47:46.892Z,8.08
2023-03-26T06:50:14.771Z,8.18
2023-03-26T06:52:44.869Z,8.13
2023-03-26T06:55:12.098Z,8.12
2023-03-26T06:57:50.538Z,8.06
2023-03-26T07:00:18.838Z,8.11
2023-03-26T07:02:47.689Z,8.10
2023-03-26T07:05:15.714Z,8.09
2023-03-26T07:07:45.878Z,8.16
2023-03-26T07:10:13.986Z,8.11
2023-03-26T07:12:44.681Z,8.19
2023-03-26T07:15:12.296Z,8.18
2023-03-26T07:17:42.068Z,8.17
2023-03-26T07:20:14.358Z,8.25
2023-03-26T07:22:42.567Z,8.12
2023-03-26T07:25:12.862Z,8.11
2023-03-26T07:27:51.833Z,8.11
2023-03-26T07:30:27.890Z,8.15
2023-03-26T07:33:01.844Z,8.18
2023-03-26T07:35:38.121Z,8.13
2023-03-26T07:38:24.118Z,8.23
2023-03-26T07:41:02.181Z,8.38
2023-03-26T07:43:58.367Z,8.41
2023-03-26T07:46:31.790Z,8.34
2023-03-26T07:49:01.801Z,8.31
2023-03-26T07:51:32.531Z,8.32
2023-03-26T07:54:00.817Z,8.39
2023-03-26T07:56:34.788Z,8.47
2023-03-26T07:59:21.564Z,8.35
2023-03-26T08:02:37.024Z,8.41
2023-03-26T08:05:20.528Z,8.35
2023-03-26T08:08:00.542Z,8.16
2023-03-26T08:10:33.375Z,8.17
2023-03-26T08:13:11.963Z,8.14
2023-03-26T08:15:50.132Z,8.15
2023-03-26T08:18:31.560Z,8.22
2023-03-26T08:21:06.212Z,8.23
2023-03-26T08:23:50.512Z,8.08
2023-03-26T08:26:29.643Z,8.15
2023-03-26T08:29:07.561Z,8.06
2023-03-26T08:31:36.942Z,8.13
2023-03-26T08:34:04.681Z,8.13
2023-03-26T08:36:32.892Z,8.33
2023-03-26T08:39:01.303Z,8.29
2023-03-26T08:42:06.660Z,8.27
2023-03-26T08:45:14.121Z,8.17
2023-03-26T08:48:23.549Z,8.15
2023-03-26T08:51:35.445Z,8.11
2023-03-26T08:54:32.514Z,8.19
2023-03-26T08:57:23.406Z,8.24
2023-03-26T09:00:17.840Z,8.26
2023-03-26T09:03:30.046Z,8.31
2023-03-26T09:06:27.862Z,8.43
2023-03-26T09:09:50.361Z,8.37
2023-03-26T09:13:04.787Z,8.34
2023-03-26T09:16:08.948Z,8.48
2023-03-26T09:19:13.850Z,8.40
2023-03-26T09:21:58.515Z,8.36
2023-03-26T09:24:48.984Z,8.31
2023-03-26T09:27:34.420Z,8.33
2023-03-26T09:30:39.122Z,8.38
2023-03-26T09:33:28.026Z,8.13
2023-03-26T09:36:19.279Z,8.04
2023-03-26T09:38:57.643Z,8.08
2023-03-26T09:41:45.223Z,7.97
2023-03-26T09:44:43.954Z,8.03
2023-03-26T09:47:39.825Z,8.00
2023-03-26T09:50:42.749Z,7.90
2023-03-26T09:53:25.101Z,8.01
2023-03-26T09:56:09.385Z,8.01
2023-03-26T09:59:11.929Z,8.00
2023-03-26T10:01:44.995Z,8.10
2023-03-26T10:04:48.818Z,8.25
2023-03-26T10:07:42.782Z,7.96
2023-03-26T10:10:18.610Z,8.03
2023-03-26T10:12:56.008Z,7.96
2023-03-26T10:15:46.956Z,8.07
2023-03-26T10:18:42.119Z,8.38
2023-03-26T10:21:24.916Z,7.97
2023-03-26T10:24:19.218Z,8.15
2023-03-26T10:27:08.396Z,8.34
2023-03-26T10:30:08.443Z,8.41
2023-03-26T10:32:54.577Z,8.39
2023-03-26T10:35:37.311Z,8.45
2023-03-26T10:38:16.952Z,8.30
2023-03-26T10:40:55.244Z,8.17
2023-03-26T10:44:08.541Z,8.12
2023-03-26T10:46:57.987Z,8.22
2023-03-26T10:49:43.768Z,8.46
2023-03-26T10:52:16.245Z,8.28
2023-03-26T10:54:57.141Z,8.24
2023-03-26T10:57:46.125Z,8.36
2023-03-26T11:00:24.037Z,8.30
2023-03-26T11:03:20.822Z,8.57
2023-03-26T11:06:02.735Z,8.68
2023-03-26T11:08:43.914Z,8.81
2023-03-26T11:11:52.637Z,8.81
2023-03-26T11:14:34.895Z,8.93
2023-03-26T11:17:40.690Z,8.95
2023-03-26T11:20:11.099Z,8.97
2023-03-26T11:22:56.543Z,9.02
2023-03-26T11:25:42.710Z,9.19
2023-03-26T11:28:25.555Z,8.93
2023-03-26T11:31:00.566Z,8.78
2023-03-26T11:33:35.291Z,8.80
2023-03-26T11:36:08.930Z,8.72
2023-03-26T11:38:45.122Z,8.97
2023-03-26T11:41:22.800Z,8.68
2023-03-26T11:46:59.101Z,9.20
2023-03-26T11:49:29.665Z,9.08
2023-03-26T11:51:57.179Z,8.84
2023-03-26T11:54:34.001Z,8.79
2023-03-26T11:57:17.894Z,8.97
2023-03-26T11:59:57.174Z,9.05
2023-03-26T12:02:34.551Z,9.23
2023-03-26T12:05:27.535Z,9.39
2023-03-26T12:07:57.859Z,9.04
2023-03-26T12:10:38.557Z,8.66
2023-03-26T12:13:29.852Z,8.96
2023-03-26T12:16:02.260Z,9.04
2023-03-26T12:18:32.198Z,9.02
2023-03-26T12:21:08.775Z,9.44
2023-03-26T12:23:58.609Z,9.26
2023-03-26T12:26:37.773Z,9.32
2023-03-26T12:29:10.082Z,9.57
2023-03-26T12:31:55.282Z,9.27
2023-03-26T12:34:31.488Z,9.21
2023-03-26T12:37:06.016Z,9.13
2023-03-26T12:40:08.890Z,9.36
2023-03-26T12:44:47.435Z,9.57
2023-03-26T12:45:21.894Z,9.38
2023-03-26T12:47:58.043Z,9.33
2023-03-26T12:50:39.444Z,9.55
2023-03-26T12:53:32.574Z,9.65
2023-03-26T12:56:23.241Z,9.87
2023-03-26T12:59:33.751Z,10.08
2023-03-26T13:02:29.806Z,10.10
2023-03-26T13:05:21.279Z,9.47
2023-03-26T13:08:07.381Z,9.54
2023-03-26T13:10:56.578Z,9.33
2023-03-26T13:13:59.727Z,9.34
2023-03-26T13:16:40.603Z,9.99
2023-03-26T13:19:30.805Z,9.99
2023-03-26T13:22:11.660Z,9.66
2023-03-26T13:25:04.604Z,9.39
2023-03-26T13:27:43.222Z,9.19
2023-03-26T13:30:23.281Z,9.36
2023-03-26T13:33:04.795Z,8.92
2023-03-26T13:35:38.663Z,8.97
2023-03-26T13:38:14.217Z,8.94
2023-03-26T13:40:52.124Z,8.74
2023-03-26T13:43:33.292Z,8.76
2023-03-26T13:46:20.354Z,9.00
2023-03-26T13:49:18.992Z,9.10
2023-03-26T13:51:52.397Z,9.08
2023-03-26T13:54:27.932Z,8.89
2023-03-26T13:57:04.791Z,9.12
2023-03-26T13:59:41.938Z,8.98
2023-03-26T14:02:15.861Z,9.08
2023-03-26T14:04:48.129Z,9.25
2023-03-26T14:07:25.415Z,8.91
2023-03-26T14:09:57.041Z,8.93
2023-03-26T14:12:37.596Z,8.93
2023-03-26T14:15:11.518Z,8.98
2023-03-26T14:17:43.241Z,9.02
2023-03-26T14:20:37.971Z,8.94
2023-03-26T14:23:31.321Z,9.35
2023-03-26T14:26:24.916Z,9.01
2023-03-26T14:29:56.746Z,8.54
2023-03-26T14:32:51.431Z,8.82
2023-03-26T14:35:37.674Z,8.97
2023-03-26T14:38:53.029Z,9.02
2023-03-26T14:41:25.004Z,8.92
2023-03-26T14:44:18.992Z,8.66
2023-03-26T14:47:04.882Z,8.85
2023-03-26T14:50:13.907Z,8.72
2023-03-26T14:53:00.740Z,8.39
2023-03-26T14:55:50.331Z,8.17
2023-03-26T14:59:02.580Z,8.31
2023-03-26T15:01:56.875Z,8.66
2023-03-26T15:04:51.176Z,9.03
2023-03-26T15:07:41.908Z,8.81
2023-03-26T15:10:47.459Z,8.86
2023-03-26T15:13:46.119Z,8.98
2023-03-26T15:16:51.518Z,8.94
2023-03-26T15:20:11.071Z,9.06
2023-03-26T15:23:10.805Z,9.03
2023-03-26T15:26:22.685Z,8.81
2023-03-26T15:29:25.518Z,8.59
2023-03-26T15:32:26.226Z,8.34
2023-03-26T15:35:15.371Z,8.56
2023-03-26T15:38:32.894Z,8.42
2023-03-26T15:41:19.380Z,8.32
2023-03-26T15:44:24.786Z,8.37
2023-03-26T15:47:11.534Z,8.37
2023-03-26T15:49:44.156Z,8.25
2023-03-26T15:52:24.353Z,8.62
2023-03-26T15:54:57.387Z,9.55
2023-03-26T15:57:32.806Z,9.79
2023-03-26T16:00:24.120Z,9.04
2023-03-26T16:03:13.311Z,10.06
2023-03-26T16:06:19.501Z,8.88
2023-03-26T16:09:01.080Z,8.25
2023-03-26T16:11:56.450Z,7.90
2023-03-26T16:14:43.975Z,8.05
2023-03-26T16:17:17.635Z,8.03
2023-03-26T16:20:01.652Z,7.92
2023-03-26T16:22:45.093Z,7.89
2023-03-26T16:25:33.329Z,7.98
2023-03-26T16:28:31.165Z,7.88
2023-03-26T16:31:37.900Z,8.06
2023-03-26T16:34:31.512Z,7.96
2023-03-26T16:37:10.864Z,7.85
2023-03-26T16:39:40.668Z,7.79
2023-03-26T16:42:31.388Z,7.59
2023-03-26T16:45:17.973Z,7.56
2023-03-26T16:47:55.596Z,7.55
2023-03-26T16:50:35.340Z,7.47
2023-03-26T16:53:23.319Z,7.75
2023-03-26T16:55:57.702Z,7.97
2023-03-26T16:58:36.937Z,8.25
2023-03-26T17:01:14.243Z,8.11
2023-03-26T17:03:55.739Z,7.79
2023-03-26T17:06:48.433Z,7.72
2023-03-26T17:09:23.692Z,7.91
2023-03-26T17:12:07.948Z,7.76
2023-03-26T17:14:49.045Z,7.61
2023-03-26T17:18:04.916Z,7.37
2023-03-26T17:20:41.133Z,7.20
2023-03-26T17:23:27.397Z,7.12
2023-03-26T17:26:04.152Z,6.98
2023-03-26T17:28:46.003Z,6.75
2023-03-26T17:31:21.535Z,6.57
2023-03-26T17:33:57.127Z,6.63
2023-03-26T17:36:41.481Z,6.62
2023-03-26T17:39:48.253Z,6.56
2023-03-26T17:42:25.953Z,6.72
2023-03-26T17:45:11.381Z,6.68
2023-03-26T17:47:43.663Z,6.80
2023-03-26T17:50:16.433Z,6.75
2023-03-26T17:53:52.047Z,6.50
2023-03-26T17:56:27.977Z,6.57
2023-03-26T17:59:11.631Z,6.56
2023-03-26T18:01:44.989Z,6.43
2023-03-26T18:04:21.227Z,6.41
2023-03-26T18:07:04.332Z,6.35
2023-03-26T18:09:52.068Z,6.34
2023-03-26T18:12:44.238Z,6.48
2023-03-26T18:15:45.103Z,6.51
2023-03-26T18:18:21.161Z,6.50
2023-03-26T18:20:55.388Z,6.61
2023-03-26T18:23:27.093Z,6.49
2023-03-26T18:26:08.504Z,6.49
2023-03-26T18:28:40.703Z,6.45
2023-03-26T18:31:19.068Z,6.35
2023-03-26T18:33:51.083Z,6.35
2023-03-26T18:36:26.148Z,6.26
2023-03-26T18:38:58.388Z,6.18
2023-03-26T18:41:52.593Z,6.19
2023-03-26T18:44:21.337Z,6.15
2023-03-26T18:46:55.145Z,6.13
2023-03-26T18:49:31.315Z,6.09
2023-03-26T18:52:00.431Z,6.13
2023-03-26T18:54:35.673Z,6.09
2023-03-26T18:57:15.592Z,6.06
2023-03-26T18:59:45.670Z,6.09
2023-03-26T19:02:16.412Z,6.04
2023-03-26T19:04:49.367Z,6.07
2023-03-26T19:07:25.086Z,6.05
2023-03-26T19:09:56.462Z,6.05
2023-03-26T19:12:33.874Z,6.01
2023-03-26T19:15:10.769Z,6.00
2023-03-26T19:17:42.394Z,5.96
2023-03-26T19:20:18.349Z,5.94
2023-03-26T19:22:52.890Z,5.95
2023-03-26T19:25:24.962Z,5.91
2023-03-26T19:27:57.751Z,5.87
2023-03-26T19:30:31.943Z,5.91
2023-03-26T19:33:13.714Z,5.93
2023-03-26T19:35:49.197Z,5.90
2023-03-26T19:38:24.237Z,5.86
2023-03-26T19:40:56.249Z,5.82
2023-03-26T19:43:29.571Z,5.72
2023-03-26T19:46:02.744Z,5.71
2023-03-26T19:48:46.013Z,5.69
2023-03-26T19:51:25.742Z,5.73
2023-03-26T19:54:07.590Z,5.65
2023-03-26T19:56:36.748Z,5.61
2023-03-26T19:59:14.454Z,5.61
2023-03-26T20:01:49.940Z,5.57
2023-03-26T20:04:17.838Z,5.65
2023-03-26T20:06:55.226Z,5.63
2023-03-26T20:09:24.203Z,5.59
2023-03-26T20:11:54.501Z,5.66
2023-03-26T20:14:41.100Z,5.61
2023-03-26T20:17:14.656Z,5.63
2023-03-26T20:19:47.735Z,5.65
2023-03-26T20:22:17.335Z,5.53
2023-03-26T20:24:48.405Z,5.59
2023-03-26T20:27:16.349Z,5.58
2023-03-26T20:29:47.829Z,5.61
2023-03-26T20:32:22.074Z,5.57
2023-03-26T20:34:53.171Z,5.68
2023-03-26T20:37:22.815Z,5.62
2023-03-26T20:39:53.791Z,5.62
2023-03-26T20:42:29.974Z,5.54
2023-03-26T20:45:15.112Z,5.53
2023-03-26T20:47:51.481Z,5.50
2023-03-26T20:50:22.541Z,5.37
2023-03-26T20:52:51.984Z,5.31
2023-03-26T20:55:22.781Z,5.36
2023-03-26T20:57:53.152Z,5.30
2023-03-26T21:00:23.261Z,5.26
2023-03-26T21:02:54.868Z,5.21
2023-03-26T21:05:29.852Z,5.14
2023-03-26T21:07:58.938Z,5.16
2023-03-26T21:10:40.324Z,5.09
2023-03-26T21:13:25.901Z,5.09
2023-03-26T21:15:55.827Z,5.09
2023-03-26T21:18:31.643Z,5.10
2023-03-26T21:21:21.247Z,5.02
2023-03-26T21:23:59.690Z,5.01
2023-03-26T21:26:41.710Z,5.10
2023-03-26T21:29:10.959Z,5.07
2023-03-26T21:31:43.798Z,5.10
2023-03-26T21:34:14.437Z,5.08
2023-03-26T21:36:47.196Z,5.10
2023-03-26T21:39:16.103Z,5.08
2023-03-26T21:41:47.182Z,5.08
2023-03-26T21:44:19.208Z,5.03
2023-03-26T21:46:49.605Z,5.00
2023-03-26T21:49:18.706Z,4.91
2023-03-26T21:51:49.438Z,4.91
2023-03-26T21:54:24.267Z,4.89
2023-03-26T21:57:09.928Z,4.86
2023-03-26T21:59:47.310Z,4.72
2023-03-26T22:02:24.784Z,4.73
2023-03-26T22:04:57.587Z,4.76
2023-03-26T22:07:37.448Z,4.71
2023-03-26T22:10:07.792Z,4.69
2023-03-26T22:12:36.459Z,4.69
2023-03-26T22:15:05.162Z,4.68
2023-03-26T22:17:34.284Z,4.67
2023-03-26T22:20:14.128Z,4.67
2023-03-26T22:22:49.150Z,4.62
2023-03-26T22:25:23.181Z,4.58
2023-03-26T22:27:53.392Z,4.57
2023-03-26T22:30:23.302Z,4.63
2023-03-26T22:32:55.857Z,4.68
2023-03-26T22:35:23.571Z,4.70
2023-03-26T22:37:51.498Z,4.70
2023-03-26T22:40:22.522Z,4.65
2023-03-26T22:42:49.978Z,4.70
2023-03-26T22:45:17.750Z,4.84
2023-03-26T22:47:45.556Z,4.86
2023-03-26T22:50:17.164Z,4.81
2023-03-26T22:52:44.515Z,4.87
2023-03-26T22:55:12.186Z,4.83
2023-03-26T22:57:40.068Z,4.89
2023-03-26T23:00:16.490Z,4.99
2023-03-26T23:02:45.226Z,5.04
2023-03-26T23:05:17.846Z,4.88
2023-03-26T23:07:49.958Z,4.61
2023-03-26T23:10:17.444Z,4.45
2023-03-26T23:12:44.781Z,4.38
2023-03-26T23:15:13.655Z,4.31
2023-03-26T23:17:43.437Z,4.23
2023-03-26T23:20:15.554Z,4.07
2023-03-26T23:22:47.398Z,4.09
2023-03-26T23:25:16.091Z,4.05
2023-03-26T23:27:46.808Z,4.16
2023-03-26T23:30:17.229Z,4.22
2023-03-26T23:32:44.829Z,4.27
2023-03-26T23:35:13.395Z,4.35
2023-03-26T23:37:42.797Z,4.40
2023-03-26T23:40:18.810Z,4.31
2023-03-26T23:42:49.657Z,4.40
2023-03-26T23:45:17.549Z,4.31
2023-03-26T23:47:51.910Z,4.29
2023-03-26T23:50:20.999Z,4.26
2023-03-26T23:52:54.289Z,4.15
2023-03-26T23:55:23.163Z,4.26
2023-03-26T23:57:51.069Z,4.21
